Time;durP1;ratioP1;P1;durP2;ratioP2;P2;SDS_P1;SDS_P2;PMS_P1;PMS_P2;Temp;Humidity;BMP_temperature;BMP_pressure;BME280_temperature;BME280_humidity;BME280_pressure;Samples;Min_cycle;Max_cycle;Signal;HPM_P1;HPM_P2
2022/11/11 00:01:02;;;;;;;11.18;4.43;;;11.40;99.90;;;;;;5111525;28;20038;-68
2022/11/11 00:03:28;;;;;;;10.73;4.03;;;11.40;99.90;;;;;;5113381;28;20023;-69
2022/11/11 00:05:54;;;;;;;12.43;4.50;;;11.40;99.90;;;;;;5112528;28;20028;-69
2022/11/11 00:08:19;;;;;;;10.18;4.63;;;11.40;99.90;;;;;;5109797;28;20015;-68
2022/11/11 00:10:45;;;;;;;7.47;4.15;;;11.40;99.90;;;;;;5112903;28;20024;-69
2022/11/11 00:13:11;;;;;;;11.48;4.57;;;11.40;99.90;;;;;;5113208;28;20380;-69
2022/11/11 00:15:38;;;;;;;8.40;4.60;;;11.30;99.90;;;;;;5110880;28;20498;-68
2022/11/11 00:26:18;;;;;;;13.85;5.22;;;11.20;99.90;;;;;;5112895;28;20103;-69
2022/11/11 00:28:43;;;;;;;9.55;5.13;;;11.30;99.90;;;;;;5092179;28;20494;-68
2022/11/11 00:31:12;;;;;;;11.50;4.57;;;11.30;99.90;;;;;;5110319;28;20080;-68
2022/11/11 00:33:38;;;;;;;9.15;5.15;;;11.30;99.90;;;;;;5110469;28;20699;-68
2022/11/11 00:36:05;;;;;;;9.13;5.40;;;11.30;99.90;;;;;;5113407;28;20032;-68
2022/11/11 00:38:46;;;;;;;9.95;5.55;;;11.20;99.90;;;;;;5107240;28;20019;-68
2022/11/11 00:41:14;;;;;;;9.40;5.53;;;11.20;99.90;;;;;;5105969;28;20102;-68
2022/11/11 00:43:39;;;;;;;16.70;6.13;;;11.10;99.90;;;;;;5111905;28;20024;-68
2022/11/11 00:51:33;;;;;;;10.70;6.18;;;11.20;99.90;;;;;;5103300;28;20138;-69
2022/11/11 00:53:59;;;;;;;12.75;6.03;;;11.10;99.90;;;;;;5103464;28;20482;-68
2022/11/11 00:56:25;;;;;;;13.07;5.95;;;11.10;99.90;;;;;;5108942;28;20383;-67
2022/11/11 00:58:51;;;;;;;10.32;6.30;;;11.20;99.90;;;;;;5104667;28;20415;-68
2022/11/11 01:01:17;;;;;;;14.07;7.05;;;11.20;99.90;;;;;;5110421;28;20031;-68
2022/11/11 01:03:43;;;;;;;14.23;8.02;;;11.20;99.90;;;;;;5107354;28;20219;-68
2022/11/11 01:06:11;;;;;;;15.77;8.38;;;11.00;99.90;;;;;;5110846;28;20094;-68
2022/11/11 01:08:37;;;;;;;17.15;7.60;;;11.10;99.90;;;;;;5106021;28;20020;-68
2022/11/11 01:11:03;;;;;;;15.40;7.90;;;11.00;99.90;;;;;;5109051;28;20035;-68
2022/11/11 01:13:31;;;;;;;12.25;7.63;;;11.20;99.90;;;;;;5110857;28;20035;-69
2022/11/11 01:16:03;;;;;;;12.18;7.38;;;11.00;99.90;;;;;;5110015;28;20070;-68
2022/11/11 01:18:29;;;;;;;16.73;8.63;;;11.10;99.90;;;;;;5101753;28;20051;-68
2022/11/11 01:21:03;;;;;;;13.27;8.00;;;11.10;99.90;;;;;;5106300;28;20024;-68
2022/11/11 01:23:30;;;;;;;16.70;7.68;;;11.10;99.90;;;;;;5110011;28;20035;-68
2022/11/11 01:26:01;;;;;;;16.42;9.25;;;11.10;99.90;;;;;;5110955;28;20050;-68
2022/11/11 01:28:26;;;;;;;17.60;8.48;;;11.10;99.90;;;;;;5110128;28;20375;-68
2022/11/11 01:30:52;;;;;;;15.32;8.82;;;11.10;99.90;;;;;;5107429;28;20118;-69
2022/11/11 01:33:18;;;;;;;14.68;9.15;;;11.10;99.90;;;;;;5101362;28;20015;-69
2022/11/11 01:35:44;;;;;;;16.38;9.25;;;11.00;99.90;;;;;;5111369;28;20476;-68
2022/11/11 01:38:10;;;;;;;13.50;9.23;;;11.10;99.90;;;;;;5111549;28;20015;-69
2022/11/11 01:40:41;;;;;;;19.25;9.57;;;11.00;99.90;;;;;;5108437;28;20051;-69
2022/11/11 01:43:07;;;;;;;18.83;9.60;;;11.00;99.90;;;;;;5102300;28;20385;-68
2022/11/11 01:46:13;;;;;;;13.82;8.57;;;11.00;99.90;;;;;;5110297;28;20031;-68
2022/11/11 01:51:35;;;;;;;18.90;9.02;;;11.00;99.90;;;;;;5104403;28;20396;-68
2022/11/11 01:54:05;;;;;;;15.57;9.82;;;11.00;99.90;;;;;;5088530;28;20028;-70
2022/11/11 01:56:32;;;;;;;19.58;9.35;;;11.00;99.90;;;;;;5112069;28;20057;-68
2022/11/11 01:59:03;;;;;;;15.57;9.32;;;11.00;99.90;;;;;;5110047;28;20883;-69
2022/11/11 02:01:28;;;;;;;16.23;9.82;;;11.00;99.90;;;;;;5105100;28;20080;-69
2022/11/11 02:06:40;;;;;;;19.90;10.55;;;11.00;99.90;;;;;;5103810;28;20512;-69
2022/11/11 02:09:06;;;;;;;16.75;9.93;;;11.00;99.90;;;;;;5107055;28;20063;-69
2022/11/11 02:14:34;;;;;;;19.90;9.95;;;10.80;99.90;;;;;;5105223;28;20161;-69
2022/11/11 02:17:04;;;;;;;18.08;10.25;;;10.90;99.90;;;;;;5106295;28;20028;-69
2022/11/11 02:20:11;;;;;;;17.90;10.20;;;10.90;99.90;;;;;;5101241;28;20032;-68
2022/11/11 02:22:56;;;;;;;18.52;10.68;;;10.70;99.90;;;;;;5104429;28;20039;-68
2022/11/11 02:25:24;;;;;;;19.15;10.40;;;10.60;99.90;;;;;;5098429;28;20031;-68
2022/11/11 02:27:52;;;;;;;17.75;10.05;;;10.70;99.90;;;;;;5086213;28;20028;-68
2022/11/11 02:30:19;;;;;;;18.80;9.40;;;10.70;99.90;;;;;;5110650;28;20077;-68
2022/11/11 02:32:47;;;;;;;17.02;9.98;;;10.70;99.90;;;;;;5107733;28;20073;-68
2022/11/11 02:35:18;;;;;;;18.35;10.23;;;10.70;99.90;;;;;;5115070;28;20432;-68
2022/11/11 02:37:47;;;;;;;16.90;10.02;;;10.60;99.90;;;;;;5110337;28;20472;-68
2022/11/11 02:43:32;;;;;;;20.42;10.20;;;10.60;99.90;;;;;;5106541;28;20034;-69
2022/11/11 02:45:59;;;;;;;15.32;9.90;;;10.70;99.90;;;;;;5107438;28;20028;-68
2022/11/11 02:48:25;;;;;;;17.60;10.55;;;10.60;99.90;;;;;;5112551;28;20028;-68
2022/11/11 02:50:52;;;;;;;20.13;9.95;;;10.60;99.90;;;;;;5115631;28;20450;-68
2022/11/11 02:53:18;;;;;;;17.67;10.35;;;10.60;99.90;;;;;;5113071;28;20543;-70
2022/11/11 02:55:44;;;;;;;18.80;10.65;;;10.60;99.90;;;;;;5109702;28;20070;-69
2022/11/11 02:58:10;;;;;;;21.30;9.75;;;10.50;99.90;;;;;;5116223;28;20079;-69
2022/11/11 03:00:35;;;;;;;15.23;9.98;;;10.40;99.90;;;;;;5115459;28;20016;-68
2022/11/11 03:03:01;;;;;;;19.38;10.50;;;10.50;99.90;;;;;;5103807;28;20426;-69
2022/11/11 03:05:27;;;;;;;18.70;11.15;;;10.50;99.90;;;;;;5114727;27;20109;-69
2022/11/11 03:07:53;;;;;;;17.55;9.65;;;10.50;99.90;;;;;;5112122;28;20011;-68
2022/11/11 03:10:18;;;;;;;22.40;10.55;;;10.40;99.90;;;;;;5113282;28;20089;-68
2022/11/11 03:12:44;;;;;;;16.08;9.38;;;10.50;99.90;;;;;;5117969;28;20023;-69
2022/11/11 03:15:10;;;;;;;20.98;11.05;;;10.50;99.90;;;;;;5110662;28;20028;-68
2022/11/11 03:17:38;;;;;;;18.95;11.20;;;10.50;99.90;;;;;;5112203;28;20020;-69
2022/11/11 03:23:09;;;;;;;17.90;10.88;;;10.40;99.90;;;;;;5110490;28;20054;-69
2022/11/11 03:25:45;;;;;;;18.50;10.70;;;10.40;99.90;;;;;;5105713;27;20027;-68
2022/11/11 03:28:19;;;;;;;19.48;10.88;;;10.40;99.90;;;;;;5111464;28;20278;-69
2022/11/11 03:30:47;;;;;;;18.67;10.93;;;10.40;99.90;;;;;;5105398;27;20073;-69
2022/11/11 03:33:14;;;;;;;22.80;11.48;;;10.40;99.90;;;;;;5115031;28;20026;-68
2022/11/11 03:35:41;;;;;;;23.17;11.23;;;10.40;99.90;;;;;;5116440;28;20031;-69
2022/11/11 03:38:23;;;;;;;25.80;13.32;;;10.40;99.90;;;;;;5114711;28;20016;-69
2022/11/11 03:40:52;;;;;;;20.52;11.90;;;10.40;99.90;;;;;;5103460;27;20278;-68
2022/11/11 03:43:19;;;;;;;23.23;12.02;;;10.30;99.90;;;;;;5107136;28;20020;-68
2022/11/11 03:45:45;;;;;;;21.50;13.13;;;10.30;99.90;;;;;;5109443;28;20102;-69
2022/11/11 03:48:11;;;;;;;21.45;12.35;;;10.40;99.90;;;;;;5108631;28;20116;-68
2022/11/11 03:50:37;;;;;;;24.48;13.60;;;10.30;99.90;;;;;;5099038;28;20028;-68
2022/11/11 03:53:03;;;;;;;25.88;12.82;;;10.10;99.90;;;;;;5111413;28;20019;-69
2022/11/11 03:55:29;;;;;;;23.25;12.80;;;10.10;99.90;;;;;;5105645;28;20040;-68
2022/11/11 03:57:54;;;;;;;25.15;12.75;;;10.10;99.90;;;;;;5112463;28;20020;-69
2022/11/11 04:00:23;;;;;;;21.75;12.00;;;10.10;99.90;;;;;;5105763;28;20043;-68
2022/11/11 04:11:08;;;;;;;21.33;11.18;;;10.10;99.90;;;;;;5112525;28;20050;-68
2022/11/11 04:16:19;;;;;;;16.65;10.07;;;10.10;99.90;;;;;;5109638;28;20138;-68
2022/11/11 04:21:44;;;;;;;19.55;10.40;;;10.20;99.90;;;;;;5105322;28;20047;-68
2022/11/11 04:27:02;;;;;;;19.63;10.57;;;10.10;99.90;;;;;;5105654;28;20123;-68
2022/11/11 04:29:29;;;;;;;17.05;10.02;;;10.00;99.90;;;;;;5111187;28;20036;-69
2022/11/11 04:34:52;;;;;;;17.20;9.80;;;10.00;99.90;;;;;;5096939;28;20043;-68
2022/11/11 04:37:19;;;;;;;21.77;10.85;;;9.90;99.90;;;;;;5108613;28;20062;-69
2022/11/11 04:42:30;;;;;;;20.02;9.48;;;9.90;99.90;;;;;;5108213;27;20121;-68
2022/11/11 04:47:56;;;;;;;16.45;10.18;;;10.00;99.90;;;;;;5109360;28;20039;-68
2022/11/11 04:50:24;;;;;;;16.45;9.23;;;9.90;99.90;;;;;;5103864;28;20036;-68
2022/11/11 04:52:50;;;;;;;14.32;9.52;;;9.90;99.90;;;;;;5107805;28;20100;-68
2022/11/11 04:58:00;;;;;;;16.77;8.95;;;9.90;99.90;;;;;;5104700;28;20522;-68
2022/11/11 05:00:26;;;;;;;18.60;10.02;;;9.90;99.90;;;;;;5106941;27;20024;-68
2022/11/11 05:11:13;;;;;;;16.63;9.40;;;9.80;99.90;;;;;;5101001;28;20100;-70
2022/11/11 05:22:31;;;;;;;14.75;9.23;;;9.90;99.90;;;;;;5106230;28;20108;-68
2022/11/11 05:27:41;;;;;;;17.27;9.43;;;9.90;99.90;;;;;;5102508;28;20063;-68
2022/11/11 05:30:09;;;;;;;19.38;9.85;;;9.90;99.90;;;;;;5105353;28;20063;-68
2022/11/11 05:32:35;;;;;;;16.90;8.82;;;9.80;99.90;;;;;;5103169;28;20111;-68
2022/11/11 05:35:01;;;;;;;20.85;9.80;;;9.70;99.90;;;;;;5108463;28;20102;-68
2022/11/11 05:37:26;;;;;;;19.08;10.02;;;9.80;99.90;;;;;;5100714;28;20047;-68
2022/11/11 05:39:53;;;;;;;18.75;10.10;;;9.80;99.90;;;;;;5106241;28;20037;-68
2022/11/11 05:42:18;;;;;;;18.70;8.95;;;9.70;99.90;;;;;;5090729;28;20027;-68
2022/11/11 05:44:44;;;;;;;19.00;9.02;;;9.70;99.90;;;;;;5108746;28;20016;-68
2022/11/11 05:47:10;;;;;;;16.67;8.82;;;9.70;99.90;;;;;;5089797;28;20157;-68
2022/11/11 05:49:36;;;;;;;18.50;8.75;;;9.70;99.90;;;;;;5105590;28;20107;-68
2022/11/11 05:52:03;;;;;;;15.90;8.23;;;9.70;99.90;;;;;;5107488;28;20028;-68
2022/11/11 05:54:29;;;;;;;16.75;7.97;;;9.80;99.90;;;;;;5103547;28;20122;-69
2022/11/11 05:56:55;;;;;;;13.18;7.60;;;9.70;99.90;;;;;;5102803;27;20114;-68
2022/11/11 05:59:20;;;;;;;12.48;7.13;;;9.70;99.90;;;;;;5100012;28;20020;-68
2022/11/11 06:01:46;;;;;;;12.55;7.85;;;9.70;99.90;;;;;;5102561;28;20035;-68
2022/11/11 06:04:11;;;;;;;12.52;7.20;;;9.80;99.90;;;;;;5103085;28;20023;-68
2022/11/11 06:06:37;;;;;;;13.80;7.68;;;9.70;99.90;;;;;;5103178;28;20153;-68
2022/11/11 06:09:03;;;;;;;14.55;8.05;;;9.70;99.90;;;;;;5107677;28;20780;-68
2022/11/11 06:11:30;;;;;;;14.95;7.97;;;9.70;99.90;;;;;;5102986;28;20035;-68
2022/11/11 06:13:55;;;;;;;19.02;8.27;;;9.70;99.90;;;;;;5109048;28;20023;-68
2022/11/11 06:16:22;;;;;;;14.35;6.90;;;9.60;99.90;;;;;;5103190;28;20020;-68
2022/11/11 06:18:49;;;;;;;13.02;7.20;;;9.50;99.90;;;;;;5108117;28;20379;-68
2022/11/11 06:21:14;;;;;;;11.38;6.88;;;9.50;99.90;;;;;;5102668;28;20040;-68
2022/11/11 06:23:40;;;;;;;12.02;7.07;;;9.50;99.90;;;;;;5109490;28;20027;-68
2022/11/11 06:26:12;;;;;;;13.27;7.22;;;9.60;99.90;;;;;;5101451;28;20035;-68
2022/11/11 06:28:45;;;;;;;11.03;6.43;;;9.60;99.90;;;;;;5108158;28;20035;-68
2022/11/11 06:31:23;;;;;;;14.05;6.93;;;9.60;99.90;;;;;;5105563;28;20038;-68
2022/11/11 06:33:48;;;;;;;12.15;7.20;;;9.50;99.90;;;;;;5107576;28;20050;-68
2022/11/11 06:36:17;;;;;;;11.15;6.65;;;9.50;99.90;;;;;;5110237;28;20039;-68
2022/11/11 06:38:43;;;;;;;10.80;7.32;;;9.50;99.90;;;;;;5108056;28;20065;-69
2022/11/11 06:41:14;;;;;;;14.32;7.53;;;9.50;99.90;;;;;;5103807;28;20016;-68
2022/11/11 06:43:43;;;;;;;11.27;6.65;;;9.50;99.90;;;;;;5103439;28;20024;-68
2022/11/11 06:46:25;;;;;;;10.00;6.18;;;9.50;99.90;;;;;;5108978;28;20147;-68
2022/11/11 06:48:50;;;;;;;12.40;6.88;;;9.50;99.90;;;;;;5102590;28;20104;-68
2022/11/11 06:51:17;;;;;;;14.02;6.65;;;9.50;99.90;;;;;;5110004;28;20488;-68
2022/11/11 06:53:43;;;;;;;13.40;6.40;;;9.40;99.90;;;;;;5100546;28;20028;-68
2022/11/11 06:56:09;;;;;;;9.30;6.05;;;9.40;99.90;;;;;;5102499;28;20020;-68
2022/11/11 06:58:35;;;;;;;10.82;6.03;;;9.40;99.90;;;;;;5105620;28;20036;-68
2022/11/11 07:01:04;;;;;;;8.35;5.40;;;9.30;99.90;;;;;;5098996;28;20027;-68
2022/11/11 07:03:31;;;;;;;10.10;6.07;;;9.30;99.90;;;;;;5103205;28;20028;-68
2022/11/11 07:05:59;;;;;;;10.20;5.88;;;9.30;99.90;;;;;;5088830;28;20524;-68
2022/11/11 07:08:25;;;;;;;10.70;6.10;;;9.30;99.90;;;;;;5105335;28;20110;-68
2022/11/11 07:10:51;;;;;;;9.15;5.43;;;9.30;99.90;;;;;;5100502;28;20024;-68
2022/11/11 07:13:16;;;;;;;13.32;5.63;;;9.20;99.90;;;;;;5105469;28;20035;-68
2022/11/11 07:15:43;;;;;;;11.52;5.60;;;9.20;99.90;;;;;;5101752;28;20028;-68
2022/11/11 07:18:09;;;;;;;9.75;5.90;;;9.20;99.90;;;;;;5107919;28;21100;-68
2022/11/11 07:20:36;;;;;;;10.07;5.93;;;9.30;99.90;;;;;;5102349;28;20028;-68
2022/11/11 07:23:03;;;;;;;15.10;5.72;;;9.40;99.90;;;;;;5103545;28;20102;-68
2022/11/11 07:25:28;;;;;;;10.93;6.10;;;9.40;99.90;;;;;;5106782;28;20380;-68
2022/11/11 07:27:54;;;;;;;11.38;6.57;;;9.30;99.90;;;;;;5115730;28;20052;-68
2022/11/11 07:30:20;;;;;;;10.77;5.53;;;9.30;99.90;;;;;;5105558;27;20616;-68
2022/11/11 07:32:47;;;;;;;9.38;5.88;;;9.30;99.90;;;;;;5107353;28;20117;-68
2022/11/11 07:35:14;;;;;;;11.15;5.60;;;9.30;99.90;;;;;;5110393;28;20065;-68
2022/11/11 07:37:40;;;;;;;11.85;5.65;;;9.30;99.90;;;;;;5112286;28;20026;-68
2022/11/11 07:40:06;;;;;;;9.50;5.97;;;9.20;99.90;;;;;;5102232;28;20050;-68
2022/11/11 07:42:36;;;;;;;13.90;7.75;;;9.20;99.90;;;;;;5108555;28;20022;-68
2022/11/11 07:45:02;;;;;;;13.70;9.20;;;9.30;99.90;;;;;;5107203;28;20028;-68
2022/11/11 07:47:28;;;;;;;14.20;7.97;;;9.20;99.90;;;;;;5101171;28;20047;-69
2022/11/11 07:49:54;;;;;;;15.20;8.15;;;9.20;99.90;;;;;;5106792;28;20437;-69
2022/11/11 07:52:22;;;;;;;10.60;6.53;;;9.30;99.90;;;;;;5110724;28;20070;-68
2022/11/11 07:54:48;;;;;;;10.70;6.82;;;9.20;99.90;;;;;;5105640;28;20020;-68
2022/11/11 07:57:14;;;;;;;14.73;7.00;;;9.30;99.90;;;;;;5090925;28;20030;-68
2022/11/11 07:59:40;;;;;;;9.43;6.60;;;9.30;99.90;;;;;;5113158;28;20537;-69
2022/11/11 08:02:09;;;;;;;9.45;6.00;;;9.30;99.90;;;;;;5112786;28;20027;-69
2022/11/11 08:04:35;;;;;;;12.18;7.15;;;9.30;99.90;;;;;;5114337;28;20567;-68
2022/11/11 08:07:01;;;;;;;11.95;8.20;;;9.30;99.90;;;;;;5104683;27;20094;-69
2022/11/11 08:09:26;;;;;;;16.27;7.82;;;9.30;99.90;;;;;;5109156;28;20425;-69
2022/11/11 08:14:36;;;;;;;35.28;17.73;;;9.30;99.90;;;;;;5110126;28;20081;-69
2022/11/11 08:17:02;;;;;;;18.58;9.88;;;9.30;99.90;;;;;;5104621;27;20031;-69
2022/11/11 08:19:28;;;;;;;13.48;8.07;;;9.20;99.90;;;;;;5109062;28;20036;-69
2022/11/11 08:21:54;;;;;;;14.65;8.00;;;9.10;99.90;;;;;;5112975;28;20044;-68
2022/11/11 08:24:20;;;;;;;14.75;6.75;;;9.20;99.90;;;;;;5109985;28;20100;-69
2022/11/11 08:26:47;;;;;;;14.15;6.13;;;9.20;99.90;;;;;;5100474;28;20491;-68
2022/11/11 08:29:12;;;;;;;17.85;6.78;;;9.20;99.90;;;;;;5108706;28;20027;-69
2022/11/11 08:31:38;;;;;;;8.63;5.65;;;9.20;99.90;;;;;;5104104;28;20073;-69
2022/11/11 08:34:04;;;;;;;11.10;5.63;;;9.30;99.90;;;;;;5108684;28;20448;-70
2022/11/11 08:36:30;;;;;;;7.85;5.05;;;9.40;99.90;;;;;;5087365;28;20134;-74
2022/11/11 08:38:55;;;;;;;9.43;5.72;;;9.40;99.90;;;;;;5107160;28;20094;-70
2022/11/11 08:41:22;;;;;;;13.63;5.70;;;9.40;99.90;;;;;;5107171;28;20034;-70
2022/11/11 08:43:54;;;;;;;9.50;4.85;;;9.40;99.90;;;;;;5091775;28;20020;-69
2022/11/11 08:46:20;;;;;;;5.28;3.95;;;9.50;99.90;;;;;;5088876;28;20107;-68
2022/11/11 08:48:46;;;;;;;10.55;4.93;;;9.50;99.90;;;;;;5109218;28;20019;-70
2022/11/11 08:51:12;;;;;;;9.30;4.80;;;9.60;99.90;;;;;;5103937;28;20046;-69
2022/11/11 08:53:38;;;;;;;7.63;4.35;;;9.60;99.90;;;;;;5107537;28;20019;-69
2022/11/11 08:56:05;;;;;;;10.23;4.38;;;9.70;99.90;;;;;;5103098;28;20118;-71
2022/11/11 08:58:32;;;;;;;6.35;3.85;;;9.70;99.90;;;;;;5108639;28;20016;-75
2022/11/11 09:01:00;;;;;;;5.35;4.03;;;9.70;99.90;;;;;;5089903;28;20035;-69
2022/11/11 09:03:26;;;;;;;6.10;4.20;;;9.80;99.90;;;;;;5109241;28;20015;-69
2022/11/11 09:05:52;;;;;;;7.35;4.50;;;9.90;99.90;;;;;;5107751;28;20024;-69
2022/11/11 09:08:17;;;;;;;8.05;4.05;;;9.90;99.90;;;;;;5109243;28;20066;-70
2022/11/11 09:10:46;;;;;;;8.30;3.88;;;10.10;99.90;;;;;;5088899;28;20688;-69
2022/11/11 09:13:12;;;;;;;4.88;3.40;;;10.10;99.90;;;;;;5089960;28;20055;-69
2022/11/11 09:15:37;;;;;;;6.72;3.97;;;10.20;99.90;;;;;;5104895;28;20063;-69
2022/11/11 09:18:03;;;;;;;6.03;3.70;;;10.20;99.90;;;;;;5103596;28;20024;-69
2022/11/11 09:20:29;;;;;;;6.47;3.30;;;10.40;99.90;;;;;;5087542;28;20482;-69
2022/11/11 09:22:55;;;;;;;5.85;3.03;;;10.50;99.90;;;;;;5100874;28;20480;-70
2022/11/11 09:25:22;;;;;;;4.18;3.40;;;10.60;99.90;;;;;;5106741;28;20039;-69
2022/11/11 09:27:58;;;;;;;3.63;3.30;;;10.70;99.90;;;;;;5110581;28;20475;-69
2022/11/11 09:30:25;;;;;;;5.88;3.20;;;10.70;99.90;;;;;;5102886;28;20100;-69
2022/11/11 09:32:51;;;;;;;4.07;2.60;;;10.90;99.90;;;;;;5109398;28;20149;-69
2022/11/11 09:35:17;;;;;;;4.72;2.88;;;10.90;99.90;;;;;;5101900;28;20480;-70
2022/11/11 09:37:55;;;;;;;4.40;2.50;;;11.10;99.90;;;;;;5106850;28;20028;-70
2022/11/11 09:40:23;;;;;;;6.82;2.75;;;11.10;99.90;;;;;;5103198;28;20383;-70
2022/11/11 09:43:04;;;;;;;9.25;3.17;;;11.20;99.90;;;;;;5104528;28;20032;-71
2022/11/11 09:45:54;;;;;;;7.40;3.28;;;11.30;99.90;;;;;;5101226;28;20068;-70
2022/11/11 09:48:44;;;;;;;3.47;2.55;;;11.40;99.90;;;;;;5102920;28;20031;-70
2022/11/11 09:51:20;;;;;;;7.20;2.70;;;11.40;99.90;;;;;;5106275;28;20047;-74
2022/11/11 09:53:53;;;;;;;4.63;2.80;;;11.60;99.90;;;;;;5087084;28;20043;-70
2022/11/11 09:56:22;;;;;;;4.20;2.60;;;11.70;99.90;;;;;;5101100;28;20031;-70
2022/11/11 09:59:09;;;;;;;2.97;2.60;;;11.80;99.90;;;;;;5068067;28;20019;-70
2022/11/11 10:01:48;;;;;;;2.33;1.88;;;11.80;99.90;;;;;;5079559;28;20043;-70
2022/11/11 10:04:35;;;;;;;4.93;2.30;;;11.90;99.90;;;;;;5091155;28;20146;-70
2022/11/11 10:07:10;;;;;;;3.28;2.25;;;12.00;99.90;;;;;;5096749;28;20020;-70
2022/11/11 10:10:07;;;;;;;3.50;2.50;;;12.10;99.90;;;;;;5093559;28;20460;-70
2022/11/11 10:12:41;;;;;;;3.70;2.00;;;12.30;99.90;;;;;;5060587;28;20446;-70
2022/11/11 10:15:13;;;;;;;2.42;2.13;;;12.30;99.90;;;;;;5099032;28;20028;-71
2022/11/11 10:17:57;;;;;;;3.10;1.73;;;12.30;99.90;;;;;;5095146;28;20099;-70
2022/11/11 10:20:31;;;;;;;4.88;2.50;;;12.30;99.90;;;;;;5098137;28;20055;-70
2022/11/11 10:23:19;;;;;;;6.82;2.47;;;12.40;99.90;;;;;;5095827;28;20548;-69
2022/11/11 10:25:55;;;;;;;4.68;2.10;;;12.50;99.90;;;;;;5099247;28;20088;-70
2022/11/11 10:28:26;;;;;;;3.30;2.00;;;12.60;99.90;;;;;;5096459;28;20496;-70
2022/11/11 10:30:52;;;;;;;2.53;2.00;;;12.70;99.90;;;;;;5095364;28;20558;-70
2022/11/11 10:33:41;;;;;;;4.60;2.10;;;12.80;99.90;;;;;;5097087;28;20027;-71
2022/11/11 10:36:16;;;;;;;3.83;1.85;;;12.80;99.90;;;;;;5091410;28;20036;-71
2022/11/11 10:38:59;;;;;;;3.53;1.67;;;12.90;99.90;;;;;;5096325;28;20696;-70
2022/11/11 10:41:39;;;;;;;5.25;2.08;;;12.90;99.90;;;;;;5097599;28;20030;-70
2022/11/11 10:44:26;;;;;;;2.95;1.98;;;13.00;99.90;;;;;;5096605;28;20476;-70
2022/11/11 10:47:30;;;;;;;3.83;1.90;;;13.10;99.90;;;;;;5096907;28;20041;-71
2022/11/11 10:50:36;;;;;;;2.33;1.60;;;13.10;99.90;;;;;;5060553;28;20056;-71
2022/11/11 10:53:10;;;;;;;4.18;1.92;;;13.20;99.90;;;;;;5088808;28;20035;-71
2022/11/11 10:56:32;;;;;;;3.78;1.67;;;13.20;99.90;;;;;;5103621;28;20036;-70
2022/11/11 10:59:18;;;;;;;2.58;1.85;;;13.20;99.90;;;;;;5056705;28;20166;-72
2022/11/11 11:02:16;;;;;;;7.65;1.92;;;13.30;99.90;;;;;;5056583;28;20180;-69
2022/11/11 11:04:52;;;;;;;3.13;1.90;;;13.30;99.90;;;;;;5097757;28;20476;-70
2022/11/11 11:07:26;;;;;;;2.83;1.75;;;13.40;99.90;;;;;;5098146;28;20031;-71
2022/11/11 11:10:04;;;;;;;3.17;1.88;;;13.50;99.90;;;;;;5103383;28;20046;-71
2022/11/11 11:12:47;;;;;;;3.90;1.98;;;13.50;99.90;;;;;;5099461;28;20020;-71
2022/11/11 11:15:20;;;;;;;4.88;2.83;;;13.60;99.90;;;;;;5096078;27;20020;-70
2022/11/11 11:18:18;;;;;;;3.08;1.88;;;13.60;99.90;;;;;;5099285;28;20028;-70
2022/11/11 11:21:01;;;;;;;4.88;1.60;;;13.60;99.90;;;;;;5065303;28;20507;-70
2022/11/11 11:23:44;;;;;;;6.07;2.30;;;13.70;99.90;;;;;;5098150;28;20023;-70
2022/11/11 11:26:13;;;;;;;3.90;2.05;;;13.80;99.90;;;;;;5100845;28;20115;-69
2022/11/11 11:29:00;;;;;;;4.82;2.15;;;13.80;99.90;;;;;;5094948;28;20024;-70
2022/11/11 11:31:37;;;;;;;3.28;2.00;;;13.90;99.90;;;;;;5081858;28;20032;-71
2022/11/11 11:34:04;;;;;;;4.75;2.50;;;14.00;99.90;;;;;;5101998;28;20051;-70
2022/11/11 11:36:29;;;;;;;4.57;2.33;;;14.10;99.90;;;;;;5101066;28;20705;-70
2022/11/11 11:38:55;;;;;;;4.53;2.30;;;14.10;99.90;;;;;;5098094;28;20046;-70
2022/11/11 11:41:42;;;;;;;4.45;1.90;;;14.20;99.90;;;;;;5099668;28;20023;-70
2022/11/11 11:44:40;;;;;;;4.65;1.60;;;14.20;99.90;;;;;;5097599;28;20020;-70
2022/11/11 11:47:18;;;;;;;7.60;1.83;;;14.30;99.90;;;;;;5065173;28;20032;-71
2022/11/11 11:49:56;;;;;;;5.57;1.90;;;14.40;99.90;;;;;;5102891;27;20024;-70
2022/11/11 11:52:31;;;;;;;6.65;1.98;;;14.40;99.90;;;;;;5100431;28;20024;-72
2022/11/11 11:55:26;;;;;;;5.03;2.35;;;14.40;99.90;;;;;;5099287;27;20024;-72
2022/11/11 11:57:52;;;;;;;6.28;2.00;;;14.40;99.90;;;;;;5059513;28;20418;-71
2022/11/11 12:00:46;;;;;;;5.40;1.80;;;14.50;99.90;;;;;;5095241;28;20051;-70
2022/11/11 12:03:18;;;;;;;;;;;14.40;99.90;;;;;;5099100;27;20027;-69
2022/11/11 12:05:56;;;;;;;2.80;1.58;;;14.40;99.90;;;;;;5096941;28;19907;-73
2022/11/11 12:08:43;;;;;;;3.67;1.50;;;14.40;99.90;;;;;;5097199;28;20477;-73
2022/11/11 12:11:27;;;;;;;2.38;1.50;;;14.40;99.90;;;;;;5099894;28;20388;-71
2022/11/11 12:14:15;;;;;;;2.92;1.48;;;14.50;99.90;;;;;;5102130;28;20028;-71
2022/11/11 12:16:56;;;;;;;1.60;1.30;;;14.60;99.90;;;;;;5100942;28;20036;-71
2022/11/11 12:20:04;;;;;;;3.47;1.40;;;14.60;99.90;;;;;;5081695;28;20115;-71
2022/11/11 12:22:42;;;;;;;2.15;1.40;;;14.70;99.90;;;;;;5019336;28;20030;-71
2022/11/11 12:25:46;;;;;;;2.25;1.63;;;14.60;99.90;;;;;;5071470;28;20047;-71
2022/11/11 12:28:39;;;;;;;3.75;1.60;;;14.70;99.90;;;;;;5093955;28;20184;-71
2022/11/11 12:31:13;;;;;;;4.25;1.65;;;14.70;99.90;;;;;;5100645;28;22211;-71
2022/11/11 12:33:42;;;;;;;2.95;1.55;;;14.70;99.90;;;;;;5095088;28;20024;-72
2022/11/11 12:36:26;;;;;;;3.33;1.38;;;14.70;99.90;;;;;;5102182;28;20062;-72
2022/11/11 12:39:05;;;;;;;4.72;1.42;;;14.70;99.90;;;;;;5098706;28;20028;-73
2022/11/11 12:42:00;;;;;;;5.53;1.33;;;14.70;99.90;;;;;;5096742;28;20034;-74
2022/11/11 12:44:37;;;;;;;4.40;1.50;;;14.80;99.90;;;;;;5099587;28;20030;-73
2022/11/11 12:47:32;;;;;;;4.32;1.90;;;14.70;99.90;;;;;;5096741;28;20012;-72
2022/11/11 12:50:11;;;;;;;4.07;1.75;;;14.70;99.90;;;;;;5098418;28;20035;-72
2022/11/11 12:52:56;;;;;;;4.85;1.42;;;14.70;99.90;;;;;;5102451;28;20275;-72
2022/11/11 12:55:59;;;;;;;2.42;1.45;;;14.70;99.90;;;;;;5095413;28;20027;-72
2022/11/11 12:58:43;;;;;;;;;;;14.70;99.90;;;;;;5084910;28;20023;-72
2022/11/11 13:01:37;;;;;;;3.65;1.52;;;14.80;99.90;;;;;;5095150;28;20052;-71
2022/11/11 13:04:21;;;;;;;3.38;1.60;;;14.80;99.90;;;;;;5094231;28;20028;-71
2022/11/11 13:07:07;;;;;;;2.75;1.67;;;14.80;99.90;;;;;;5095742;28;20081;-71
2022/11/11 13:10:15;;;;;;;2.97;1.67;;;14.80;99.90;;;;;;5051208;28;20036;-71
2022/11/11 13:12:44;;;;;;;3.70;1.95;;;14.70;99.90;;;;;;5078304;27;20507;-71
2022/11/11 13:15:23;;;;;;;4.28;1.42;;;14.80;99.90;;;;;;5094471;28;20051;-71
2022/11/11 13:17:50;;;;;;;2.80;1.60;;;14.80;99.90;;;;;;5092505;28;20028;-70
2022/11/11 13:20:27;;;;;;;2.65;1.30;;;14.80;99.90;;;;;;5094839;28;20502;-72
2022/11/11 13:22:53;;;;;;;3.10;1.75;;;14.80;99.90;;;;;;5096074;28;20103;-70
2022/11/11 13:25:25;;;;;;;12.60;1.42;;;14.80;99.90;;;;;;5094429;28;20409;-69
2022/11/11 13:27:55;;;;;;;3.95;1.20;;;14.80;99.90;;;;;;5092566;28;20012;-70
2022/11/11 13:30:39;;;;;;;4.40;1.38;;;14.80;99.90;;;;;;5096304;28;20107;-72
2022/11/11 13:33:08;;;;;;;4.45;1.73;;;14.80;99.90;;;;;;5095828;28;20028;-72
2022/11/11 13:35:52;;;;;;;1.75;1.25;;;14.80;99.90;;;;;;5095646;28;20476;-72
2022/11/11 13:38:35;;;;;;;4.50;1.63;;;14.80;99.90;;;;;;5097345;28;20126;-72
2022/11/11 13:41:08;;;;;;;2.45;1.48;;;14.80;99.90;;;;;;5096320;28;20092;-73
2022/11/11 13:43:43;;;;;;;2.25;1.50;;;14.80;99.90;;;;;;5095579;28;20106;-73
2022/11/11 13:46:33;;;;;;;2.40;1.30;;;14.80;99.90;;;;;;5093908;28;20123;-74
2022/11/11 13:49:01;;;;;;;3.72;1.40;;;14.80;99.90;;;;;;5096179;28;20118;-74
2022/11/11 13:51:26;;;;;;;2.38;1.40;;;14.90;99.90;;;;;;5093442;28;20040;-70
2022/11/11 13:53:52;;;;;;;2.15;1.25;;;14.80;99.90;;;;;;5095535;28;20049;-71
2022/11/11 13:56:38;;;;;;;4.60;1.80;;;14.80;99.90;;;;;;5094412;28;20496;-73
2022/11/11 13:59:05;;;;;;;3.13;1.70;;;14.80;99.90;;;;;;5094318;28;20016;-73
2022/11/11 14:01:36;;;;;;;5.28;1.55;;;14.80;99.90;;;;;;5095031;28;20028;-74
2022/11/11 14:04:04;;;;;;;1.80;1.20;;;14.70;99.90;;;;;;5093741;28;20485;-75
2022/11/11 14:06:33;;;;;;;3.80;1.95;;;14.80;99.90;;;;;;5094229;28;20411;-71
2022/11/11 14:09:00;;;;;;;3.38;1.85;;;14.70;99.90;;;;;;5092524;28;20024;-70
2022/11/11 14:11:25;;;;;;;2.42;1.60;;;14.70;99.90;;;;;;5090355;28;20074;-70
2022/11/11 14:13:51;;;;;;;4.80;1.83;;;14.60;99.90;;;;;;5091902;28;20451;-72
2022/11/11 14:16:52;;;;;;;4.38;1.80;;;14.60;99.90;;;;;;5098083;28;20032;-73
2022/11/11 14:19:18;;;;;;;3.88;1.80;;;14.60;99.90;;;;;;5079800;28;20050;-73
2022/11/11 14:21:55;;;;;;;4.20;2.33;;;14.60;99.90;;;;;;5098536;28;20027;-73
2022/11/11 14:24:34;;;;;;;6.00;2.25;;;14.50;99.90;;;;;;5098630;28;20085;-74
2022/11/11 14:27:07;;;;;;;3.83;1.95;;;14.50;99.90;;;;;;5093753;28;20102;-71